sensor_id;sensor_type;location;lat;lon;timestamp;P1;durP1;ratioP1;P2;durP2;ratioP2
47894;SDS011;33653;52.302;8.134;2023-04-09T20:56:34;42.83;;;23.10;;
47894;SDS011;33653;52.302;8.134;2023-04-09T20:59:02;34.22;;;19.27;;
47894;SDS011;33653;52.302;8.134;2023-04-09T21:01:30;37.42;;;19.63;;
47894;SDS011;33653;52.302;8.134;2023-04-09T21:04:01;43.50;;;20.80;;
47894;SDS011;33653;52.302;8.134;2023-04-09T21:06:37;32.72;;;17.98;;
47894;SDS011;33653;52.302;8.134;2023-04-09T21:09:06;40.22;;;19.65;;
47894;SDS011;33653;52.302;8.134;2023-04-09T21:11:34;33.10;;;17.95;;
47894;SDS011;33653;52.302;8.134;2023-04-09T21:14:03;35.13;;;18.45;;
47894;SDS011;33653;52.302;8.134;2023-04-09T21:16:34;37.20;;;18.65;;
47894;SDS011;33653;52.302;8.134;2023-04-09T21:19:02;30.75;;;17.58;;
47894;SDS011;33653;52.302;8.134;2023-04-09T21:21:33;41.93;;;18.27;;
47894;SDS011;33653;52.302;8.134;2023-04-09T21:24:02;40.03;;;17.23;;
47894;SDS011;33653;52.302;8.134;2023-04-09T21:26:33;31.25;;;17.55;;
47894;SDS011;33653;52.302;8.134;2023-04-09T21:29:18;39.45;;;16.60;;
47894;SDS011;33653;52.302;8.134;2023-04-09T21:31:48;31.45;;;15.70;;
47894;SDS011;33653;52.302;8.134;2023-04-09T21:34:17;30.25;;;16.40;;
47894;SDS011;33653;52.302;8.134;2023-04-09T21:36:45;34.40;;;17.77;;
47894;SDS011;33653;52.302;8.134;2023-04-09T21:39:15;33.25;;;17.65;;
47894;SDS011;33653;52.302;8.134;2023-04-09T21:41:44;39.42;;;18.23;;
47894;SDS011;33653;52.302;8.134;2023-04-09T21:44:12;32.60;;;17.85;;
47894;SDS011;33653;52.302;8.134;2023-04-09T21:46:41;38.40;;;18.55;;
47894;SDS011;33653;52.302;8.134;2023-04-09T21:49:09;32.53;;;17.45;;
47894;SDS011;33653;52.302;8.134;2023-04-09T21:51:37;52.75;;;19.08;;
47894;SDS011;33653;52.302;8.134;2023-04-09T21:54:09;36.13;;;18.20;;
47894;SDS011;33653;52.302;8.134;2023-04-09T21:56:37;37.65;;;20.17;;
47894;SDS011;33653;52.302;8.134;2023-04-09T21:59:06;38.10;;;18.85;;
47894;SDS011;33653;52.302;8.134;2023-04-09T22:01:34;39.75;;;20.05;;
47894;SDS011;33653;52.302;8.134;2023-04-09T22:04:03;36.00;;;19.35;;
47894;SDS011;33653;52.302;8.134;2023-04-09T22:06:31;38.17;;;18.83;;
47894;SDS011;33653;52.302;8.134;2023-04-09T22:08:59;31.60;;;18.15;;
47894;SDS011;33653;52.302;8.134;2023-04-09T22:11:28;44.78;;;20.20;;
47894;SDS011;33653;52.302;8.134;2023-04-09T22:13:57;31.85;;;17.85;;
47894;SDS011;33653;52.302;8.134;2023-04-09T22:16:25;38.97;;;19.67;;
47894;SDS011;33653;52.302;8.134;2023-04-09T22:18:53;36.55;;;18.48;;
47894;SDS011;33653;52.302;8.134;2023-04-09T22:21:23;43.13;;;21.90;;
47894;SDS011;33653;52.302;8.134;2023-04-09T22:23:52;40.03;;;18.80;;
47894;SDS011;33653;52.302;8.134;2023-04-09T22:26:21;36.30;;;19.05;;
47894;SDS011;33653;52.302;8.134;2023-04-09T22:28:50;31.77;;;18.70;;
47894;SDS011;33653;52.302;8.134;2023-04-09T22:33:53;34.65;;;17.85;;
47894;SDS011;33653;52.302;8.134;2023-04-09T22:36:22;31.70;;;17.17;;
47894;SDS011;33653;52.302;8.134;2023-04-09T22:38:50;34.90;;;15.55;;
47894;SDS011;33653;52.302;8.134;2023-04-09T22:41:19;31.38;;;16.75;;
47894;SDS011;33653;52.302;8.134;2023-04-09T22:43:48;35.45;;;16.10;;
47894;SDS011;33653;52.302;8.134;2023-04-09T22:46:18;31.42;;;16.90;;
47894;SDS011;33653;52.302;8.134;2023-04-09T22:48:48;27.15;;;16.02;;
47894;SDS011;33653;52.302;8.134;2023-04-09T22:51:16;24.42;;;14.93;;
47894;SDS011;33653;52.302;8.134;2023-04-09T22:53:45;31.17;;;15.55;;
47894;SDS011;33653;52.302;8.134;2023-04-09T22:56:13;31.05;;;16.15;;
47894;SDS011;33653;52.302;8.134;2023-04-09T22:58:41;23.02;;;14.68;;
47894;SDS011;33653;52.302;8.134;2023-04-09T23:01:09;26.13;;;14.25;;
47894;SDS011;33653;52.302;8.134;2023-04-09T23:03:38;31.40;;;15.50;;
47894;SDS011;33653;52.302;8.134;2023-04-09T23:06:06;21.80;;;14.15;;
47894;SDS011;33653;52.302;8.134;2023-04-09T23:08:34;27.40;;;14.20;;
47894;SDS011;33653;52.302;8.134;2023-04-09T23:11:06;20.58;;;15.05;;
47894;SDS011;33653;52.302;8.134;2023-04-09T23:13:34;32.03;;;18.10;;
47894;SDS011;33653;52.302;8.134;2023-04-09T23:16:04;24.13;;;16.15;;
47894;SDS011;33653;52.302;8.134;2023-04-09T23:18:34;27.30;;;16.42;;
47894;SDS011;33653;52.302;8.134;2023-04-09T23:21:03;31.08;;;16.80;;
47894;SDS011;33653;52.302;8.134;2023-04-09T23:23:34;27.08;;;15.48;;
47894;SDS011;33653;52.302;8.134;2023-04-09T23:26:03;31.27;;;15.20;;
47894;SDS011;33653;52.302;8.134;2023-04-09T23:28:32;29.83;;;15.82;;
47894;SDS011;33653;52.302;8.134;2023-04-09T23:31:00;29.83;;;15.70;;
47894;SDS011;33653;52.302;8.134;2023-04-09T23:33:29;32.70;;;16.52;;
47894;SDS011;33653;52.302;8.134;2023-04-09T23:35:58;29.58;;;16.23;;
47894;SDS011;33653;52.302;8.134;2023-04-09T23:38:27;27.08;;;16.15;;
47894;SDS011;33653;52.302;8.134;2023-04-09T23:40:55;23.70;;;14.50;;
47894;SDS011;33653;52.302;8.134;2023-04-09T23:43:23;27.88;;;16.60;;
47894;SDS011;33653;52.302;8.134;2023-04-09T23:45:51;28.55;;;14.57;;
47894;SDS011;33653;52.302;8.134;2023-04-09T23:48:20;26.27;;;15.23;;
47894;SDS011;33653;52.302;8.134;2023-04-09T23:50:48;25.55;;;15.27;;
47894;SDS011;33653;52.302;8.134;2023-04-09T23:53:16;31.77;;;16.45;;
47894;SDS011;33653;52.302;8.134;2023-04-09T23:55:45;29.88;;;15.68;;
47894;SDS011;33653;52.302;8.134;2023-04-09T23:58:13;30.13;;;15.57;;
